createdAt,value
2022-09-23T00:01:08.883Z,61.53
2022-09-23T00:03:39.327Z,61.86
2022-09-23T00:06:11.037Z,61.26
2022-09-23T00:08:42.200Z,61.77
2022-09-23T00:11:12.347Z,61.77
2022-09-23T00:13:42.795Z,61.93
2022-09-23T00:16:13.137Z,61.91
2022-09-23T00:18:43.488Z,61.50
2022-09-23T00:21:15.579Z,61.15
2022-09-23T00:23:44.423Z,61.66
2022-09-23T00:26:15.782Z,61.05
2022-09-23T00:28:44.019Z,61.72
2022-09-23T00:31:14.492Z,61.01
2022-09-23T00:33:42.726Z,61.36
2022-09-23T00:36:15.644Z,61.11
2022-09-23T00:38:43.749Z,61.34
2022-09-23T00:41:18.445Z,62.12
2022-09-23T00:43:48.426Z,61.16
2022-09-23T00:46:19.897Z,60.94
2022-09-23T00:48:51.122Z,61.17
2022-09-23T00:51:23.670Z,60.75
2022-09-23T00:53:53.278Z,60.82
2022-09-23T00:56:24.518Z,61.08
2022-09-23T00:58:53.527Z,60.96
2022-09-23T01:01:22.198Z,62.51
2022-09-23T01:03:51.174Z,61.39
2022-09-23T01:06:20.459Z,61.28
2022-09-23T01:08:49.051Z,61.36
2022-09-23T01:11:40.787Z,61.26
2022-09-23T01:14:24.131Z,60.54
2022-09-23T01:16:58.448Z,61.05
2022-09-23T01:19:47.613Z,61.36
2022-09-23T01:22:22.979Z,61.83
2022-09-23T01:25:11.235Z,61.39
2022-09-23T01:27:58.919Z,61.83
2022-09-23T01:30:46.819Z,61.46
2022-09-23T01:33:23.188Z,61.47
2022-09-23T01:36:03.373Z,61.22
2022-09-23T01:38:40.123Z,60.81
2022-09-23T01:41:16.466Z,60.85
2022-09-23T01:43:51.288Z,60.88
2022-09-23T01:46:25.498Z,60.56
2022-09-23T01:49:01.846Z,61.04
2022-09-23T01:51:34.826Z,61.40
2022-09-23T01:54:09.500Z,61.61
2022-09-23T01:56:41.879Z,61.33
2022-09-23T01:59:14.129Z,60.89
2022-09-23T02:01:50.893Z,61.70
2022-09-23T02:04:24.882Z,61.58
2022-09-23T02:06:58.030Z,61.18
2022-09-23T02:09:32.667Z,61.32
2022-09-23T02:12:06.734Z,61.35
2022-09-23T02:14:39.933Z,60.83
2022-09-23T02:17:13.089Z,61.48
2022-09-23T02:19:47.919Z,61.32
2022-09-23T02:22:20.840Z,61.32
2022-09-23T02:24:50.010Z,61.20
2022-09-23T02:27:25.820Z,61.03
2022-09-23T02:29:58.693Z,60.98
2022-09-23T02:32:34.451Z,61.27
2022-09-23T02:35:13.803Z,61.45
2022-09-23T02:37:48.662Z,61.47
2022-09-23T02:40:23.877Z,61.70
2022-09-23T02:42:59.769Z,61.19
2022-09-23T02:45:27.938Z,61.42
2022-09-23T02:48:03.743Z,61.48
2022-09-23T02:50:33.384Z,62.24
2022-09-23T02:53:02.142Z,61.88
2022-09-23T02:55:32.398Z,61.88
2022-09-23T02:58:02.606Z,61.91
2022-09-23T03:00:40.303Z,62.32
2022-09-23T03:03:24.167Z,62.25
2022-09-23T03:05:57.432Z,61.80
2022-09-23T03:08:37.636Z,62.22
2022-09-23T03:11:08.524Z,62.02
2022-09-23T03:13:53.218Z,62.33
2022-09-23T03:16:31.845Z,62.59
2022-09-23T03:19:13.379Z,63.32
2022-09-23T03:21:46.461Z,62.72
2022-09-23T03:24:16.660Z,62.86
2022-09-23T03:26:47.765Z,62.86
2022-09-23T03:29:17.927Z,61.92
2022-09-23T03:31:46.497Z,62.48
2022-09-23T03:34:21.336Z,62.21
2022-09-23T03:36:57.429Z,63.23
2022-09-23T03:39:32.562Z,62.98
2022-09-23T03:42:04.851Z,62.71
2022-09-23T03:44:37.818Z,63.07
2022-09-23T03:47:06.894Z,62.58
2022-09-23T03:49:39.214Z,61.76
2022-09-23T03:52:07.285Z,62.63
2022-09-23T03:54:35.943Z,63.52
2022-09-23T03:57:04.457Z,62.75
2022-09-23T03:59:32.682Z,62.76
2022-09-23T04:02:01.886Z,62.50
2022-09-23T04:04:33.947Z,63.27
2022-09-23T04:07:04.651Z,62.46
2022-09-23T04:09:32.626Z,62.52
2022-09-23T04:12:03.209Z,63.85
2022-09-23T04:14:31.207Z,62.39
2022-09-23T04:16:59.228Z,63.18
2022-09-23T04:19:27.171Z,63.10
2022-09-23T04:21:55.218Z,62.47
2022-09-23T04:24:24.647Z,63.48
2022-09-23T04:26:53.876Z,63.02
2022-09-23T04:29:22.398Z,62.86
2022-09-23T04:31:50.644Z,63.30
2022-09-23T04:34:19.393Z,63.15
2022-09-23T04:36:48.653Z,63.03
2022-09-23T04:39:17.527Z,62.94
2022-09-23T04:41:47.263Z,63.60
2022-09-23T04:44:15.977Z,63.64
2022-09-23T04:46:47.570Z,64.19
2022-09-23T04:49:15.931Z,63.80
2022-09-23T04:51:44.179Z,64.10
2022-09-23T04:54:14.546Z,64.27
2022-09-23T04:56:43.239Z,63.83
2022-09-23T04:59:12.660Z,64.31
2022-09-23T05:01:41.712Z,63.29
2022-09-23T05:04:14.351Z,63.16
2022-09-23T05:06:45.076Z,63.99
2022-09-23T05:09:16.107Z,63.73
2022-09-23T05:11:45.522Z,62.80
2022-09-23T05:14:15.344Z,64.23
2022-09-23T05:16:43.777Z,63.85
2022-09-23T05:19:13.518Z,64.04
2022-09-23T05:21:41.683Z,63.23
2022-09-23T05:24:09.916Z,63.66
2022-09-23T05:26:38.381Z,62.81
2022-09-23T05:29:06.550Z,64.66
2022-09-23T05:31:36.720Z,64.31
2022-09-23T05:34:06.607Z,64.45
2022-09-23T05:36:38.645Z,63.92
2022-09-23T05:39:08.833Z,63.96
2022-09-23T05:41:38.262Z,63.77
2022-09-23T05:44:06.356Z,64.59
2022-09-23T05:46:36.139Z,63.86
2022-09-23T05:49:05.626Z,63.60
2022-09-23T05:51:35.457Z,63.53
2022-09-23T05:54:04.143Z,63.07
2022-09-23T05:56:33.879Z,62.57
2022-09-23T05:59:03.292Z,63.08
2022-09-23T06:01:33.969Z,63.14
2022-09-23T06:04:05.892Z,63.57
2022-09-23T06:06:35.964Z,64.22
2022-09-23T06:09:05.271Z,63.56
2022-09-23T06:11:34.875Z,64.91
2022-09-23T06:14:03.288Z,64.84
2022-09-23T06:16:33.711Z,64.59
2022-09-23T06:19:06.558Z,65.26
2022-09-23T06:21:37.617Z,65.37
2022-09-23T06:24:06.605Z,64.35
2022-09-23T06:26:35.665Z,66.80
2022-09-23T06:29:06.147Z,64.94
2022-09-23T06:31:34.387Z,65.54
2022-09-23T06:34:16.412Z,66.91
2022-09-23T06:36:46.421Z,65.53
2022-09-23T06:39:15.650Z,64.42
2022-09-23T06:41:44.143Z,64.47
2022-09-23T06:44:15.672Z,65.16
2022-09-23T06:46:44.331Z,64.10
2022-09-23T06:49:14.014Z,64.16
2022-09-23T06:51:42.690Z,64.22
2022-09-23T06:54:11.221Z,65.01
2022-09-23T06:56:40.062Z,64.81
2022-09-23T06:59:10.399Z,64.34
2022-09-23T07:01:38.470Z,63.48
2022-09-23T07:04:07.658Z,66.88
2022-09-23T07:06:37.634Z,65.18
2022-09-23T07:09:06.974Z,65.08
2022-09-23T07:11:34.926Z,65.29
2022-09-23T07:14:03.180Z,65.42
2022-09-23T07:16:31.683Z,65.86
2022-09-23T07:18:59.815Z,64.67
2022-09-23T07:21:27.974Z,64.00
2022-09-23T07:23:58.229Z,63.99
2022-09-23T07:26:27.131Z,63.74
2022-09-23T07:28:56.574Z,63.59
2022-09-23T07:31:37.306Z,63.51
2022-09-23T07:34:07.621Z,64.37
2022-09-23T07:36:37.505Z,65.02
2022-09-23T07:39:11.221Z,67.03
2022-09-23T07:41:39.359Z,65.13
2022-09-23T07:44:08.217Z,65.98
2022-09-23T07:46:37.303Z,64.75
2022-09-23T07:49:06.645Z,64.75
2022-09-23T07:51:37.381Z,64.56
2022-09-23T07:54:08.959Z,63.90
2022-09-23T07:56:38.221Z,64.12
2022-09-23T07:59:08.606Z,64.07
2022-09-23T08:01:38.763Z,63.96
2022-09-23T08:04:09.274Z,63.34
2022-09-23T08:06:40.935Z,64.11
2022-09-23T08:09:10.730Z,64.42
2022-09-23T08:11:39.448Z,64.03
2022-09-23T08:14:08.904Z,65.34
2022-09-23T08:16:37.167Z,64.34
2022-09-23T08:21:33.604Z,63.37
2022-09-23T08:24:01.714Z,63.50
2022-09-23T08:26:34.264Z,63.39
2022-09-23T08:29:02.319Z,63.45
2022-09-23T08:31:30.247Z,63.15
2022-09-23T08:33:59.384Z,63.14
2022-09-23T08:36:27.866Z,65.27
2022-09-23T08:38:57.249Z,64.48
2022-09-23T08:41:34.671Z,64.32
2022-09-23T08:46:54.818Z,64.68
2022-09-23T08:49:30.995Z,64.78
2022-09-23T08:52:06.817Z,65.73
2022-09-23T08:54:34.821Z,68.08
2022-09-23T08:57:04.799Z,66.11
2022-09-23T08:59:43.043Z,66.64
2022-09-23T09:02:17.861Z,65.57
2022-09-23T09:04:50.486Z,64.28
2022-09-23T09:07:36.321Z,65.92
2022-09-23T09:10:10.867Z,63.73
2022-09-23T09:12:44.490Z,63.74
2022-09-23T09:15:21.066Z,65.61
2022-09-23T09:18:01.288Z,64.08
2022-09-23T09:20:39.663Z,66.82
2022-09-23T09:23:20.208Z,67.95
2022-09-23T09:25:51.240Z,66.81
2022-09-23T09:28:23.429Z,64.57
2022-09-23T09:30:57.289Z,64.09
2022-09-23T09:33:30.547Z,65.18
2022-09-23T09:36:09.028Z,64.21
2022-09-23T09:38:37.614Z,65.27
2022-09-23T09:41:14.234Z,65.04
2022-09-23T09:43:44.267Z,65.12
2022-09-23T09:46:34.216Z,63.72
2022-09-23T09:49:08.514Z,63.53
2022-09-23T09:51:37.117Z,66.63
2022-09-23T09:54:18.640Z,66.59
2022-09-23T09:59:23.413Z,67.50
2022-09-23T10:02:13.947Z,66.66
2022-09-23T10:04:42.285Z,64.05
2022-09-23T10:07:15.546Z,63.38
2022-09-23T10:09:51.006Z,66.87
2022-09-23T10:12:21.420Z,64.74
2022-09-23T10:14:51.813Z,65.94
2022-09-23T10:17:26.353Z,65.38
2022-09-23T10:20:00.961Z,65.06
2022-09-23T10:22:32.974Z,65.50
2022-09-23T10:25:05.897Z,63.51
2022-09-23T10:27:35.919Z,64.58
2022-09-23T10:30:07.081Z,64.57
2022-09-23T10:32:37.906Z,63.11
2022-09-23T10:35:15.520Z,63.51
2022-09-23T10:37:48.292Z,63.57
2022-09-23T10:40:48.819Z,65.10
2022-09-23T10:43:42.985Z,65.56
2022-09-23T10:46:37.063Z,65.48
2022-09-23T10:49:27.789Z,67.63
2022-09-23T10:52:10.802Z,65.63
2022-09-23T10:54:53.843Z,65.91
2022-09-23T10:57:40.632Z,64.77
2022-09-23T11:00:23.563Z,64.76
2022-09-23T11:03:32.183Z,64.71
2022-09-23T11:06:14.014Z,64.89
2022-09-23T11:09:00.173Z,65.74
2022-09-23T11:11:38.765Z,64.74
2022-09-23T11:14:18.544Z,66.44
2022-09-23T11:17:04.105Z,65.38
2022-09-23T11:19:51.718Z,64.74
2022-09-23T11:22:38.741Z,67.03
2022-09-23T11:25:23.963Z,66.23
2022-09-23T11:28:17.462Z,66.55
2022-09-23T11:30:51.885Z,65.06
2022-09-23T11:33:39.284Z,65.24
2022-09-23T11:36:10.687Z,64.85
2022-09-23T11:38:44.746Z,66.00
2022-09-23T11:41:20.391Z,65.16
2022-09-23T11:43:53.971Z,64.26
2022-09-23T11:46:32.423Z,63.32
2022-09-23T11:49:08.875Z,64.73
2022-09-23T11:51:43.582Z,63.45
2022-09-23T11:54:21.167Z,63.17
2022-09-23T11:56:52.647Z,64.25
2022-09-23T11:59:39.678Z,64.06
2022-09-23T12:02:21.805Z,63.46
2022-09-23T12:05:01.283Z,64.70
2022-09-23T12:07:39.591Z,64.78
2022-09-23T12:10:11.867Z,65.62
2022-09-23T12:12:48.903Z,65.29
2022-09-23T12:15:42.736Z,65.83
2022-09-23T12:18:27.679Z,64.27
2022-09-23T12:21:22.401Z,66.92
2022-09-23T12:24:28.501Z,64.73
2022-09-23T12:27:01.916Z,65.79
2022-09-23T12:29:32.593Z,65.66
2022-09-23T12:32:01.257Z,64.61
2022-09-23T12:34:31.646Z,63.87
2022-09-23T12:37:04.144Z,64.50
2022-09-23T12:39:34.519Z,66.53
2022-09-23T12:42:07.679Z,66.70
2022-09-23T12:44:41.448Z,64.90
2022-09-23T12:47:31.950Z,65.53
2022-09-23T12:50:01.050Z,65.45
2022-09-23T12:52:31.538Z,65.40
2022-09-23T12:55:34.790Z,64.42
2022-09-23T12:58:04.094Z,64.89
2022-09-23T13:00:34.278Z,64.67
2022-09-23T13:03:20.299Z,63.61
2022-09-23T13:06:09.776Z,63.95
2022-09-23T13:08:40.702Z,64.40
2022-09-23T13:11:20.441Z,64.36
2022-09-23T13:13:51.527Z,65.43
2022-09-23T13:16:24.234Z,66.67
2022-09-23T13:18:54.586Z,64.65
2022-09-23T13:21:56.042Z,63.74
2022-09-23T13:24:39.738Z,66.23
2022-09-23T13:27:17.024Z,64.79
2022-09-23T13:29:52.120Z,64.10
2022-09-23T13:32:21.981Z,63.75
2022-09-23T13:34:58.197Z,65.03
2022-09-23T13:37:32.711Z,64.00
2022-09-23T13:40:18.917Z,63.87
2022-09-23T13:42:50.406Z,64.37
2022-09-23T13:45:22.626Z,65.57
2022-09-23T13:47:52.244Z,64.33
2022-09-23T13:50:22.771Z,63.92
2022-09-23T13:52:54.028Z,63.80
2022-09-23T13:55:31.174Z,67.27
2022-09-23T13:58:04.309Z,66.18
2022-09-23T14:00:37.027Z,63.80
2022-09-23T14:03:18.042Z,63.73
2022-09-23T14:05:47.251Z,63.81
2022-09-23T14:08:15.294Z,63.37
2022-09-23T14:10:46.894Z,64.82
2022-09-23T14:13:25.527Z,64.10
2022-09-23T14:15:59.474Z,63.65
2022-09-23T14:18:36.719Z,63.44
2022-09-23T14:21:05.387Z,63.66
2022-09-23T14:23:33.864Z,63.45
2022-09-23T14:26:03.403Z,63.59
2022-09-23T14:28:31.548Z,63.56
2022-09-23T14:31:01.024Z,63.65
2022-09-23T14:33:33.467Z,63.95
2022-09-23T14:36:06.625Z,63.90
2022-09-23T14:38:52.106Z,63.70
2022-09-23T14:41:23.902Z,64.06
2022-09-23T14:43:59.176Z,63.70
2022-09-23T14:46:30.459Z,63.99
2022-09-23T14:49:07.912Z,64.36
2022-09-23T14:51:46.290Z,64.00
2022-09-23T14:54:42.471Z,64.52
2022-09-23T14:57:34.676Z,64.30
2022-09-23T15:00:14.586Z,64.26
2022-09-23T15:02:46.343Z,63.75
2022-09-23T15:05:17.358Z,64.51
2022-09-23T15:07:49.359Z,63.82
2022-09-23T15:10:23.630Z,63.31
2022-09-23T15:12:53.602Z,66.39
2022-09-23T15:15:27.928Z,66.59
2022-09-23T15:18:05.109Z,68.08
2022-09-23T15:20:33.470Z,66.26
2022-09-23T15:23:01.977Z,65.24
2022-09-23T15:25:36.356Z,65.84
2022-09-23T15:28:18.321Z,66.31
2022-09-23T15:30:46.898Z,64.96
2022-09-23T15:33:16.441Z,64.31
2022-09-23T15:35:47.608Z,66.05
2022-09-23T15:38:17.513Z,64.90
2022-09-23T15:40:46.512Z,66.26
2022-09-23T15:43:21.104Z,65.69
2022-09-23T15:45:53.105Z,65.55
2022-09-23T15:48:25.165Z,64.95
2022-09-23T15:50:54.685Z,65.39
2022-09-23T15:53:24.987Z,65.11
2022-09-23T15:55:53.358Z,67.07
2022-09-23T15:58:21.615Z,66.67
2022-09-23T16:00:55.671Z,64.85
2022-09-23T16:03:28.619Z,65.88
2022-09-23T16:05:58.163Z,65.12
2022-09-23T16:08:26.263Z,65.63
2022-09-23T16:10:54.908Z,66.11
2022-09-23T16:13:23.303Z,65.15
2022-09-23T16:15:51.461Z,64.85
2022-09-23T16:18:19.704Z,64.41
2022-09-23T16:20:51.298Z,65.51
2022-09-23T16:23:34.478Z,64.71
2022-09-23T16:26:07.329Z,64.70
2022-09-23T16:28:35.571Z,66.16
2022-09-23T16:31:05.755Z,65.38
2022-09-23T16:33:34.225Z,67.70
2022-09-23T16:36:03.951Z,67.98
2022-09-23T16:38:32.815Z,66.27
2022-09-23T16:41:01.120Z,65.90
2022-09-23T16:43:32.727Z,68.41
2022-09-23T16:46:01.132Z,68.42
2022-09-23T16:48:29.117Z,65.90
2022-09-23T16:50:57.242Z,66.25
2022-09-23T16:53:30.517Z,65.57
2022-09-23T16:55:59.070Z,65.95
2022-09-23T16:58:27.024Z,65.84
2022-09-23T17:01:16.100Z,66.27
2022-09-23T17:03:44.141Z,65.39
2022-09-23T17:06:13.346Z,65.56
2022-09-23T17:08:44.786Z,65.47
2022-09-23T17:11:16.788Z,64.75
2022-09-23T17:13:45.440Z,65.65
2022-09-23T17:16:23.627Z,64.71
2022-09-23T17:18:51.897Z,64.65
2022-09-23T17:21:20.047Z,64.91
2022-09-23T17:23:49.657Z,64.18
2022-09-23T17:26:17.698Z,65.75
2022-09-23T17:28:45.659Z,65.40
2022-09-23T17:31:41.025Z,65.63
2022-09-23T17:34:20.302Z,65.66
2022-09-23T17:36:48.449Z,66.91
2022-09-23T17:39:18.438Z,66.54
2022-09-23T17:41:46.528Z,65.55
2022-09-23T17:44:16.130Z,66.57
2022-09-23T17:46:44.221Z,65.78
2022-09-23T17:49:12.222Z,66.03
2022-09-23T17:51:40.533Z,66.85
2022-09-23T17:54:08.873Z,66.96
2022-09-23T17:56:38.222Z,66.63
2022-09-23T17:59:06.344Z,67.14
2022-09-23T18:01:35.694Z,66.85
2022-09-23T18:04:05.661Z,66.45
2022-09-23T18:06:36.210Z,66.67
2022-09-23T18:09:06.559Z,65.97
2022-09-23T18:11:39.461Z,64.87
2022-09-23T18:14:15.403Z,65.77
2022-09-23T18:16:45.361Z,66.24
2022-09-23T18:19:16.062Z,66.32
2022-09-23T18:21:48.522Z,65.92
2022-09-23T18:24:33.190Z,64.98
2022-09-23T18:28:02.896Z,65.22
2022-09-23T18:31:13.791Z,65.30
2022-09-23T18:34:41.071Z,66.37
2022-09-23T18:37:15.667Z,65.75
2022-09-23T18:39:45.759Z,65.48
2022-09-23T18:42:14.430Z,65.34
2022-09-23T18:44:42.394Z,65.07
2022-09-23T18:47:31.375Z,64.88
2022-09-23T18:50:17.906Z,65.29
2022-09-23T18:52:48.242Z,65.14
2022-09-23T18:55:16.455Z,64.82
2022-09-23T18:57:45.068Z,65.03
2022-09-23T19:00:13.792Z,64.60
2022-09-23T19:02:43.030Z,64.33
2022-09-23T19:05:11.292Z,65.46
2022-09-23T19:07:39.412Z,64.56
2022-09-23T19:10:10.168Z,64.14
2022-09-23T19:12:38.192Z,64.18
2022-09-23T19:15:06.806Z,64.89
2022-09-23T19:17:34.803Z,63.99
2022-09-23T19:20:03.292Z,63.96
2022-09-23T19:22:32.880Z,64.49
2022-09-23T19:25:00.803Z,64.39
2022-09-23T19:27:30.130Z,63.80
2022-09-23T19:29:58.221Z,64.59
2022-09-23T19:32:26.737Z,64.23
2022-09-23T19:34:54.776Z,64.95
2022-09-23T19:37:23.190Z,64.64
2022-09-23T19:39:51.143Z,65.71
2022-09-23T19:42:19.113Z,65.33
2022-09-23T19:44:49.738Z,64.91
2022-09-23T19:47:17.756Z,65.01
2022-09-23T19:49:46.048Z,64.54
2022-09-23T19:52:14.087Z,64.48
2022-09-23T19:54:45.901Z,64.83
2022-09-23T19:57:14.328Z,65.13
2022-09-23T19:59:42.403Z,64.37
2022-09-23T20:02:12.414Z,63.81
2022-09-23T20:04:40.706Z,64.84
2022-09-23T20:07:11.359Z,64.65
2022-09-23T20:09:39.299Z,63.85
2022-09-23T20:12:11.795Z,64.49
2022-09-23T20:14:42.223Z,64.92
2022-09-23T20:17:13.605Z,63.94
2022-09-23T20:19:41.706Z,64.12
2022-09-23T20:22:32.982Z,63.56
2022-09-23T20:25:02.028Z,64.43
2022-09-23T20:27:31.215Z,63.99
2022-09-23T20:30:00.447Z,63.96
2022-09-23T20:32:29.820Z,63.25
2022-09-23T20:34:57.989Z,64.20
2022-09-23T20:37:26.051Z,64.21
2022-09-23T20:39:54.359Z,63.90
2022-09-23T20:42:22.420Z,63.16
2022-09-23T20:44:50.931Z,62.89
2022-09-23T20:47:19.839Z,62.98
2022-09-23T20:49:49.492Z,63.30
2022-09-23T20:52:20.296Z,63.32
2022-09-23T20:54:50.475Z,63.21
2022-09-23T20:57:19.941Z,62.80
2022-09-23T20:59:48.672Z,63.44
2022-09-23T21:02:16.928Z,64.20
2022-09-23T21:04:45.415Z,63.85
2022-09-23T21:07:14.722Z,62.42
2022-09-23T21:09:42.743Z,63.01
2022-09-23T21:12:11.469Z,63.36
2022-09-23T21:14:39.516Z,63.08
2022-09-23T21:17:07.898Z,62.86
2022-09-23T21:19:38.056Z,62.49
2022-09-23T21:22:06.015Z,62.66
2022-09-23T21:27:23.944Z,62.53
2022-09-23T21:29:51.828Z,62.33
2022-09-23T21:32:19.785Z,61.81
2022-09-23T21:34:51.148Z,62.88
2022-09-23T21:37:19.110Z,62.95
2022-09-23T21:40:08.921Z,62.53
2022-09-23T21:42:36.938Z,62.55
2022-09-23T21:45:06.087Z,62.12
2022-09-23T21:47:36.095Z,61.85
2022-09-23T21:50:04.484Z,62.20
2022-09-23T21:52:32.407Z,62.11
2022-09-23T21:55:01.842Z,61.89
2022-09-23T21:57:31.046Z,63.26
2022-09-23T21:59:58.994Z,63.02
2022-09-23T22:02:27.580Z,62.67
2022-09-23T22:04:55.961Z,62.47
2022-09-23T22:07:24.173Z,62.32
2022-09-23T22:09:52.182Z,61.90
2022-09-23T22:12:21.615Z,62.20
2022-09-23T22:14:51.021Z,63.11
2022-09-23T22:17:19.494Z,62.44
2022-09-23T22:19:47.575Z,61.57
2022-09-23T22:22:17.643Z,62.75
2022-09-23T22:24:47.284Z,61.72
2022-09-23T22:27:17.711Z,60.05
2022-09-23T22:30:04.590Z,61.35
2022-09-23T22:32:51.533Z,61.69
2022-09-23T22:35:22.524Z,62.55
2022-09-23T22:37:50.541Z,62.28
2022-09-23T22:40:18.734Z,61.61
2022-09-23T22:42:48.785Z,61.78
2022-09-23T22:45:18.220Z,62.27
2022-09-23T22:47:46.215Z,62.46
2022-09-23T22:50:15.371Z,61.60
2022-09-23T22:52:44.071Z,61.91
2022-09-23T22:55:12.849Z,60.90
2022-09-23T22:57:40.925Z,60.47
2022-09-23T23:00:14.631Z,61.55
2022-09-23T23:02:44.031Z,59.63
2022-09-23T23:05:14.560Z,62.58
2022-09-23T23:07:42.729Z,63.56
2022-09-23T23:10:11.894Z,65.75
2022-09-23T23:12:44.043Z,64.60
2022-09-23T23:15:12.364Z,63.78
2022-09-23T23:17:43.412Z,63.00
2022-09-23T23:20:12.972Z,59.50
2022-09-23T23:22:41.065Z,62.09
2022-09-23T23:25:10.471Z,59.12
2022-09-23T23:27:38.479Z,62.22
2022-09-23T23:30:08.395Z,62.21
2022-09-23T23:32:36.380Z,62.39
2022-09-23T23:35:04.678Z,62.14
2022-09-23T23:37:33.991Z,61.53
2022-09-23T23:40:02.168Z,58.94
2022-09-23T23:42:31.789Z,63.43
2022-09-23T23:44:59.883Z,61.09
2022-09-23T23:47:27.855Z,63.45
2022-09-23T23:49:55.841Z,62.29
2022-09-23T23:52:23.819Z,63.08
2022-09-23T23:54:53.140Z,62.85
2022-09-23T23:57:21.163Z,62.73
2022-09-23T23:59:49.038Z,63.26
